首页
METAR-TAF:

METAR-TAF

机场 :

伏尔加格勒, 俄罗斯

纬度: 48-47N, 经度: 044-22E, 海拔: 145米

当前天气观测

该预报发布于12分钟前的05:00 UTC
风速16节,风向东南
温度 0°C
湿度 86%
气压 1016 hPa
能見度: 8000
多云层高于2700英尺

METAR: URWW 290500Z 14008MPS 8000 BKN027 M00/M02 Q1016 R06/290050 TEMPO 0300 -FZRA FZFG OVC002

时间: 09:12 (05:12 UTC)

预报

该预报发布于3小时和13分钟前的01:59 UTC
预报有效从29日的 03点(UTC)到 29日的 12点(UTC)
风速14节,风向南转南东,有时为25节阵风
能見度: 3100
阴天层高于300英尺
小雨, 雪, 轻雾
短暂存在
从 29日的 03点(UTC)到 29日的 06点(UTC)
风速10节,风向东南,有时为19节阵风
能見度: 0300
(小) 冻, 雨, 冻雾
短暂存在
从 29日的 06点(UTC)到 29日的 12点(UTC)
风速17节,风向东南,有时为27节阵风
能見度: 1000
多云层高于500英尺
多云层高于2000英尺, 积雨云.
阵雨, 雪

TAF: URWW 290159Z 2903/2912 15007G13MPS 3100 -RASN BR OVC003 TEMPO 2903/2906 13005G10MPS 0300 -FZRA FZFG TEMPO 2906/2912 13009G14MPS 1000 SHRASN BKN005 BKN020CB

超过4000个机场的气象观测和天气预报(METAR&TAF报告)。

可查询的气象台以黄色和红色小点在地图上表示。

将鼠标移到小点上方,可查看气象台名称。

然后点击查看天气观测和预报。

如需切换地图:点击带黑十字的绿色按钮放大地图;点击带横线的绿色按钮缩小地图;或者点击绿色箭头查看邻近地区的地图。


METAR-TAF: